sensor_id;sensor_type;location;lat;lon;timestamp;temperature;humidity
46730;DHT22;32476;50.002;11.854;2023-04-07T00:02:48;-0.30;99.90
46730;DHT22;32476;50.002;11.854;2023-04-07T00:05:14;-0.40;99.90
46730;DHT22;32476;50.002;11.854;2023-04-07T00:07:40;-0.30;99.90
46730;DHT22;32476;50.002;11.854;2023-04-07T00:10:07;-0.40;99.90
46730;DHT22;32476;50.002;11.854;2023-04-07T00:12:33;-0.30;99.90
46730;DHT22;32476;50.002;11.854;2023-04-07T00:15:00;-0.40;99.90
46730;DHT22;32476;50.002;11.854;2023-04-07T00:17:27;-0.30;99.90
46730;DHT22;32476;50.002;11.854;2023-04-07T00:19:53;-0.30;99.90
46730;DHT22;32476;50.002;11.854;2023-04-07T00:22:19;-0.40;99.90
46730;DHT22;32476;50.002;11.854;2023-04-07T00:24:46;-0.30;99.90
46730;DHT22;32476;50.002;11.854;2023-04-07T00:27:12;-0.30;99.90
46730;DHT22;32476;50.002;11.854;2023-04-07T00:29:38;-0.30;99.90
46730;DHT22;32476;50.002;11.854;2023-04-07T00:32:05;-0.40;99.90
46730;DHT22;32476;50.002;11.854;2023-04-07T00:34:31;-0.40;99.90
46730;DHT22;32476;50.002;11.854;2023-04-07T00:36:57;-0.50;99.90
46730;DHT22;32476;50.002;11.854;2023-04-07T00:39:24;-0.50;99.90
46730;DHT22;32476;50.002;11.854;2023-04-07T00:41:52;-0.50;99.90
46730;DHT22;32476;50.002;11.854;2023-04-07T00:44:17;-0.50;99.90
46730;DHT22;32476;50.002;11.854;2023-04-07T00:46:46;-0.60;99.90
46730;DHT22;32476;50.002;11.854;2023-04-07T00:49:12;-0.60;99.90
46730;DHT22;32476;50.002;11.854;2023-04-07T00:51:38;-0.70;99.90
46730;DHT22;32476;50.002;11.854;2023-04-07T00:54:06;-0.80;99.90
46730;DHT22;32476;50.002;11.854;2023-04-07T00:56:31;-0.90;99.90
46730;DHT22;32476;50.002;11.854;2023-04-07T00:58:57;-1.00;99.90
46730;DHT22;32476;50.002;11.854;2023-04-07T01:01:30;-1.00;99.90
46730;DHT22;32476;50.002;11.854;2023-04-07T01:04:04;-1.10;99.90
46730;DHT22;32476;50.002;11.854;2023-04-07T01:06:37;-1.20;99.90
46730;DHT22;32476;50.002;11.854;2023-04-07T01:09:15;-1.10;99.90
46730;DHT22;32476;50.002;11.854;2023-04-07T01:14:22;-1.30;99.90
46730;DHT22;32476;50.002;11.854;2023-04-07T01:16:50;-1.40;99.90
46730;DHT22;32476;50.002;11.854;2023-04-07T01:19:46;-1.30;99.90
46730;DHT22;32476;50.002;11.854;2023-04-07T01:22:17;-1.20;99.90
46730;DHT22;32476;50.002;11.854;2023-04-07T01:25:21;-1.20;99.90
46730;DHT22;32476;50.002;11.854;2023-04-07T01:28:55;-1.10;99.90
46730;DHT22;32476;50.002;11.854;2023-04-07T01:30:57;-1.00;99.90
46730;DHT22;32476;50.002;11.854;2023-04-07T01:33:25;-1.00;99.90
46730;DHT22;32476;50.002;11.854;2023-04-07T01:35:54;-1.10;99.90
46730;DHT22;32476;50.002;11.854;2023-04-07T01:38:25;-1.10;99.90
46730;DHT22;32476;50.002;11.854;2023-04-07T01:40:53;-1.20;99.90
46730;DHT22;32476;50.002;11.854;2023-04-07T01:43:21;-1.20;99.90
46730;DHT22;32476;50.002;11.854;2023-04-07T01:45:50;-1.20;99.90
46730;DHT22;32476;50.002;11.854;2023-04-07T01:48:16;-1.30;99.90
46730;DHT22;32476;50.002;11.854;2023-04-07T01:50:43;-1.40;99.90
46730;DHT22;32476;50.002;11.854;2023-04-07T01:53:12;-1.40;99.90
46730;DHT22;32476;50.002;11.854;2023-04-07T01:55:39;-1.40;99.90
46730;DHT22;32476;50.002;11.854;2023-04-07T01:58:06;-1.40;99.90
46730;DHT22;32476;50.002;11.854;2023-04-07T02:00:33;-1.30;99.90
46730;DHT22;32476;50.002;11.854;2023-04-07T02:03:10;-1.40;99.90
46730;DHT22;32476;50.002;11.854;2023-04-07T02:05:38;-1.50;99.90
46730;DHT22;32476;50.002;11.854;2023-04-07T02:08:07;-1.60;99.90
46730;DHT22;32476;50.002;11.854;2023-04-07T02:10:36;-1.60;99.90
46730;DHT22;32476;50.002;11.854;2023-04-07T02:13:05;-1.50;99.90
46730;DHT22;32476;50.002;11.854;2023-04-07T02:15:35;-1.60;99.90
46730;DHT22;32476;50.002;11.854;2023-04-07T02:18:02;-1.70;99.90
46730;DHT22;32476;50.002;11.854;2023-04-07T02:20:31;-1.70;99.90
46730;DHT22;32476;50.002;11.854;2023-04-07T02:22:57;-1.60;99.90
46730;DHT22;32476;50.002;11.854;2023-04-07T02:25:31;-1.70;99.90
46730;DHT22;32476;50.002;11.854;2023-04-07T02:27:59;-1.60;99.90
46730;DHT22;32476;50.002;11.854;2023-04-07T02:30:26;-1.40;99.90
46730;DHT22;32476;50.002;11.854;2023-04-07T02:32:52;-1.20;99.90
46730;DHT22;32476;50.002;11.854;2023-04-07T02:35:20;-1.10;99.90
46730;DHT22;32476;50.002;11.854;2023-04-07T02:37:46;-1.10;99.90
46730;DHT22;32476;50.002;11.854;2023-04-07T02:40:12;-1.10;99.90
46730;DHT22;32476;50.002;11.854;2023-04-07T02:42:40;-1.20;99.90
46730;DHT22;32476;50.002;11.854;2023-04-07T02:45:06;-1.20;99.90
46730;DHT22;32476;50.002;11.854;2023-04-07T02:47:33;-1.20;99.90
46730;DHT22;32476;50.002;11.854;2023-04-07T02:50:02;-1.30;99.90
46730;DHT22;32476;50.002;11.854;2023-04-07T02:52:28;-1.50;99.90
46730;DHT22;32476;50.002;11.854;2023-04-07T02:54:53;-1.60;99.90
46730;DHT22;32476;50.002;11.854;2023-04-07T02:57:21;-1.50;99.90
46730;DHT22;32476;50.002;11.854;2023-04-07T02:59:47;-1.40;99.90
46730;DHT22;32476;50.002;11.854;2023-04-07T03:02:13;-1.40;99.90
46730;DHT22;32476;50.002;11.854;2023-04-07T03:04:40;-1.30;99.90
46730;DHT22;32476;50.002;11.854;2023-04-07T03:07:06;-1.40;99.90
46730;DHT22;32476;50.002;11.854;2023-04-07T03:09:32;-1.50;99.90
46730;DHT22;32476;50.002;11.854;2023-04-07T03:11:59;-1.70;99.90
46730;DHT22;32476;50.002;11.854;2023-04-07T03:14:26;-1.80;99.90
46730;DHT22;32476;50.002;11.854;2023-04-07T03:16:52;-1.80;99.90
46730;DHT22;32476;50.002;11.854;2023-04-07T03:19:19;-1.80;99.90
46730;DHT22;32476;50.002;11.854;2023-04-07T03:21:45;-1.80;99.90
46730;DHT22;32476;50.002;11.854;2023-04-07T03:24:11;-1.70;99.90
46730;DHT22;32476;50.002;11.854;2023-04-07T03:26:39;-1.70;99.90
46730;DHT22;32476;50.002;11.854;2023-04-07T03:29:05;-1.80;99.90
46730;DHT22;32476;50.002;11.854;2023-04-07T03:31:31;-1.80;99.90
46730;DHT22;32476;50.002;11.854;2023-04-07T03:33:58;-1.70;99.90
46730;DHT22;32476;50.002;11.854;2023-04-07T03:36:24;-1.70;99.90
46730;DHT22;32476;50.002;11.854;2023-04-07T03:38:49;-1.90;99.90
46730;DHT22;32476;50.002;11.854;2023-04-07T03:41:17;-1.90;99.90
46730;DHT22;32476;50.002;11.854;2023-04-07T03:43:42;-1.90;99.90
46730;DHT22;32476;50.002;11.854;2023-04-07T03:46:08;-1.90;99.90
46730;DHT22;32476;50.002;11.854;2023-04-07T03:48:35;-2.10;99.90
46730;DHT22;32476;50.002;11.854;2023-04-07T03:51:01;-2.20;99.90
46730;DHT22;32476;50.002;11.854;2023-04-07T03:53:27;-2.10;99.90
46730;DHT22;32476;50.002;11.854;2023-04-07T03:55:55;-2.00;99.90
46730;DHT22;32476;50.002;11.854;2023-04-07T03:58:20;-2.00;99.90
46730;DHT22;32476;50.002;11.854;2023-04-07T04:00:46;-1.90;99.90
46730;DHT22;32476;50.002;11.854;2023-04-07T04:03:14;-1.90;99.90
46730;DHT22;32476;50.002;11.854;2023-04-07T04:05:39;-1.90;99.90
46730;DHT22;32476;50.002;11.854;2023-04-07T04:08:06;-1.80;99.90
46730;DHT22;32476;50.002;11.854;2023-04-07T04:10:33;-1.70;99.90
46730;DHT22;32476;50.002;11.854;2023-04-07T04:12:59;-1.80;99.90
46730;DHT22;32476;50.002;11.854;2023-04-07T04:15:25;-1.80;99.90
46730;DHT22;32476;50.002;11.854;2023-04-07T04:17:53;-1.70;99.90
46730;DHT22;32476;50.002;11.854;2023-04-07T04:20:19;-1.60;99.90
46730;DHT22;32476;50.002;11.854;2023-04-07T04:22:46;-1.70;99.90
46730;DHT22;32476;50.002;11.854;2023-04-07T04:25:16;-1.80;99.90
46730;DHT22;32476;50.002;11.854;2023-04-07T04:27:45;-1.80;99.90
46730;DHT22;32476;50.002;11.854;2023-04-07T04:30:11;-1.90;99.90
46730;DHT22;32476;50.002;11.854;2023-04-07T04:32:38;-1.90;99.90
46730;DHT22;32476;50.002;11.854;2023-04-07T04:35:05;-1.90;99.90
46730;DHT22;32476;50.002;11.854;2023-04-07T04:37:31;-1.80;99.90
46730;DHT22;32476;50.002;11.854;2023-04-07T04:39:58;-1.80;99.90
46730;DHT22;32476;50.002;11.854;2023-04-07T04:42:24;-1.80;99.90
46730;DHT22;32476;50.002;11.854;2023-04-07T04:44:52;-1.80;99.90
46730;DHT22;32476;50.002;11.854;2023-04-07T04:47:19;-1.80;99.90
46730;DHT22;32476;50.002;11.854;2023-04-07T04:49:45;-1.90;99.90
46730;DHT22;32476;50.002;11.854;2023-04-07T04:52:11;-1.80;99.90
46730;DHT22;32476;50.002;11.854;2023-04-07T04:54:38;-1.60;99.90
46730;DHT22;32476;50.002;11.854;2023-04-07T04:57:04;-1.40;99.90
46730;DHT22;32476;50.002;11.854;2023-04-07T04:59:30;-1.30;99.90
46730;DHT22;32476;50.002;11.854;2023-04-07T05:01:57;-1.40;99.90
46730;DHT22;32476;50.002;11.854;2023-04-07T05:04:23;-1.50;99.90
46730;DHT22;32476;50.002;11.854;2023-04-07T05:06:49;-1.70;99.90
46730;DHT22;32476;50.002;11.854;2023-04-07T05:09:16;-1.80;99.90
46730;DHT22;32476;50.002;11.854;2023-04-07T05:11:42;-1.90;99.90
46730;DHT22;32476;50.002;11.854;2023-04-07T05:14:08;-1.80;99.90
46730;DHT22;32476;50.002;11.854;2023-04-07T05:16:35;-1.60;99.90
46730;DHT22;32476;50.002;11.854;2023-04-07T05:19:01;-1.60;99.90
46730;DHT22;32476;50.002;11.854;2023-04-07T05:21:27;-1.60;99.90
46730;DHT22;32476;50.002;11.854;2023-04-07T05:23:54;-1.70;99.90
46730;DHT22;32476;50.002;11.854;2023-04-07T05:26:20;-1.70;99.90
46730;DHT22;32476;50.002;11.854;2023-04-07T05:28:46;-1.70;99.90
46730;DHT22;32476;50.002;11.854;2023-04-07T05:31:13;-1.70;99.90
46730;DHT22;32476;50.002;11.854;2023-04-07T05:33:39;-1.70;99.90
46730;DHT22;32476;50.002;11.854;2023-04-07T05:36:05;-1.70;99.90
46730;DHT22;32476;50.002;11.854;2023-04-07T05:38:33;-1.50;99.90
46730;DHT22;32476;50.002;11.854;2023-04-07T05:40:58;-1.30;99.90
46730;DHT22;32476;50.002;11.854;2023-04-07T05:43:24;-1.30;99.90
46730;DHT22;32476;50.002;11.854;2023-04-07T05:45:51;-1.40;99.90
46730;DHT22;32476;50.002;11.854;2023-04-07T05:48:17;-1.30;99.90
46730;DHT22;32476;50.002;11.854;2023-04-07T05:50:43;-1.20;99.90
46730;DHT22;32476;50.002;11.854;2023-04-07T05:53:10;-1.10;99.90
46730;DHT22;32476;50.002;11.854;2023-04-07T05:55:36;-1.10;99.90
46730;DHT22;32476;50.002;11.854;2023-04-07T05:58:02;-1.10;99.90
46730;DHT22;32476;50.002;11.854;2023-04-07T06:00:29;-1.10;99.90
46730;DHT22;32476;50.002;11.854;2023-04-07T06:02:55;-1.00;99.90
46730;DHT22;32476;50.002;11.854;2023-04-07T06:05:21;-0.90;99.90
46730;DHT22;32476;50.002;11.854;2023-04-07T06:07:48;-0.80;99.90
46730;DHT22;32476;50.002;11.854;2023-04-07T06:10:14;-0.70;99.90
46730;DHT22;32476;50.002;11.854;2023-04-07T06:12:41;-0.60;99.90
46730;DHT22;32476;50.002;11.854;2023-04-07T06:15:08;-0.40;99.90
46730;DHT22;32476;50.002;11.854;2023-04-07T06:17:34;-0.20;99.90
46730;DHT22;32476;50.002;11.854;2023-04-07T06:20:00;0.10;99.90
46730;DHT22;32476;50.002;11.854;2023-04-07T06:22:27;0.40;99.90
46730;DHT22;32476;50.002;11.854;2023-04-07T06:24:53;0.60;99.90
46730;DHT22;32476;50.002;11.854;2023-04-07T06:27:20;0.90;99.90
46730;DHT22;32476;50.002;11.854;2023-04-07T06:29:47;1.10;99.90
46730;DHT22;32476;50.002;11.854;2023-04-07T06:32:13;1.40;99.90
46730;DHT22;32476;50.002;11.854;2023-04-07T06:34:39;1.60;99.90
46730;DHT22;32476;50.002;11.854;2023-04-07T06:37:06;1.90;99.90
46730;DHT22;32476;50.002;11.854;2023-04-07T06:39:33;2.10;99.90
46730;DHT22;32476;50.002;11.854;2023-04-07T06:41:58;2.30;99.90
46730;DHT22;32476;50.002;11.854;2023-04-07T06:44:26;2.60;99.90
46730;DHT22;32476;50.002;11.854;2023-04-07T06:46:51;2.80;99.90
46730;DHT22;32476;50.002;11.854;2023-04-07T06:49:18;3.10;99.90
46730;DHT22;32476;50.002;11.854;2023-04-07T06:51:45;3.50;99.90
46730;DHT22;32476;50.002;11.854;2023-04-07T06:54:11;3.80;99.90
46730;DHT22;32476;50.002;11.854;2023-04-07T06:56:42;4.00;99.90
46730;DHT22;32476;50.002;11.854;2023-04-07T06:59:09;4.00;99.90
46730;DHT22;32476;50.002;11.854;2023-04-07T07:01:35;4.20;99.90
46730;DHT22;32476;50.002;11.854;2023-04-07T07:04:02;4.40;99.90
46730;DHT22;32476;50.002;11.854;2023-04-07T07:06:31;4.70;99.90
46730;DHT22;32476;50.002;11.854;2023-04-07T07:08:58;5.00;99.90
46730;DHT22;32476;50.002;11.854;2023-04-07T07:11:24;5.10;99.90
46730;DHT22;32476;50.002;11.854;2023-04-07T07:13:52;5.20;99.90
46730;DHT22;32476;50.002;11.854;2023-04-07T07:16:17;5.30;99.90
46730;DHT22;32476;50.002;11.854;2023-04-07T07:18:43;5.30;99.90
46730;DHT22;32476;50.002;11.854;2023-04-07T07:21:11;5.50;99.90
46730;DHT22;32476;50.002;11.854;2023-04-07T07:23:36;5.70;99.90
46730;DHT22;32476;50.002;11.854;2023-04-07T07:26:03;5.80;99.70
46730;DHT22;32476;50.002;11.854;2023-04-07T07:28:30;5.90;99.20
46730;DHT22;32476;50.002;11.854;2023-04-07T07:30:55;6.10;98.20
46730;DHT22;32476;50.002;11.854;2023-04-07T07:33:21;6.10;96.60
46730;DHT22;32476;50.002;11.854;2023-04-07T07:35:48;6.30;95.80
46730;DHT22;32476;50.002;11.854;2023-04-07T07:38:14;6.40;94.40
46730;DHT22;32476;50.002;11.854;2023-04-07T07:40:40;6.50;95.00
46730;DHT22;32476;50.002;11.854;2023-04-07T07:43:08;6.70;92.80
46730;DHT22;32476;50.002;11.854;2023-04-07T07:45:33;6.80;93.20
46730;DHT22;32476;50.002;11.854;2023-04-07T07:47:59;6.90;91.00
46730;DHT22;32476;50.002;11.854;2023-04-07T07:50:26;7.10;91.80
46730;DHT22;32476;50.002;11.854;2023-04-07T07:52:52;7.30;90.30
46730;DHT22;32476;50.002;11.854;2023-04-07T07:55:18;7.50;91.00
46730;DHT22;32476;50.002;11.854;2023-04-07T07:57:46;7.70;88.10
46730;DHT22;32476;50.002;11.854;2023-04-07T08:00:13;7.70;86.30
46730;DHT22;32476;50.002;11.854;2023-04-07T08:02:38;7.70;85.90
46730;DHT22;32476;50.002;11.854;2023-04-07T08:05:07;7.70;85.80
46730;DHT22;32476;50.002;11.854;2023-04-07T08:07:33;8.00;87.40
46730;DHT22;32476;50.002;11.854;2023-04-07T08:09:59;8.10;84.40
46730;DHT22;32476;50.002;11.854;2023-04-07T08:12:26;8.40;86.20
46730;DHT22;32476;50.002;11.854;2023-04-07T08:14:52;8.50;83.30
46730;DHT22;32476;50.002;11.854;2023-04-07T08:17:17;8.60;86.10
46730;DHT22;32476;50.002;11.854;2023-04-07T08:19:45;8.40;83.90
46730;DHT22;32476;50.002;11.854;2023-04-07T08:22:11;8.30;82.50
46730;DHT22;32476;50.002;11.854;2023-04-07T08:24:39;8.10;80.50
46730;DHT22;32476;50.002;11.854;2023-04-07T08:27:06;8.10;80.60
46730;DHT22;32476;50.002;11.854;2023-04-07T08:29:32;8.20;80.10
46730;DHT22;32476;50.002;11.854;2023-04-07T08:31:58;8.20;79.20
46730;DHT22;32476;50.002;11.854;2023-04-07T08:34:25;8.50;79.90
46730;DHT22;32476;50.002;11.854;2023-04-07T08:36:52;8.80;81.50
46730;DHT22;32476;50.002;11.854;2023-04-07T08:39:19;9.10;80.00
46730;DHT22;32476;50.002;11.854;2023-04-07T08:41:47;9.30;77.80
46730;DHT22;32476;50.002;11.854;2023-04-07T08:44:14;9.30;75.40
46730;DHT22;32476;50.002;11.854;2023-04-07T08:46:41;9.50;75.70
46730;DHT22;32476;50.002;11.854;2023-04-07T08:49:10;9.60;74.00
46730;DHT22;32476;50.002;11.854;2023-04-07T08:51:44;9.70;72.40
46730;DHT22;32476;50.002;11.854;2023-04-07T08:54:14;9.90;74.20
46730;DHT22;32476;50.002;11.854;2023-04-07T08:56:41;10.30;70.50
46730;DHT22;32476;50.002;11.854;2023-04-07T08:59:13;10.10;67.70
46730;DHT22;32476;50.002;11.854;2023-04-07T09:01:41;10.20;69.30
46730;DHT22;32476;50.002;11.854;2023-04-07T09:04:08;10.00;65.50
46730;DHT22;32476;50.002;11.854;2023-04-07T09:06:35;10.50;68.80
46730;DHT22;32476;50.002;11.854;2023-04-07T09:09:03;10.60;65.30
46730;DHT22;32476;50.002;11.854;2023-04-07T09:11:35;11.10;66.80
46730;DHT22;32476;50.002;11.854;2023-04-07T09:14:02;11.10;62.70
46730;DHT22;32476;50.002;11.854;2023-04-07T09:16:28;10.90;63.40
46730;DHT22;32476;50.002;11.854;2023-04-07T09:18:55;11.70;66.90
46730;DHT22;32476;50.002;11.854;2023-04-07T09:21:23;10.80;58.20
46730;DHT22;32476;50.002;11.854;2023-04-07T09:23:49;11.10;64.20
46730;DHT22;32476;50.002;11.854;2023-04-07T09:26:23;11.60;62.90
46730;DHT22;32476;50.002;11.854;2023-04-07T09:28:57;11.80;66.90
46730;DHT22;32476;50.002;11.854;2023-04-07T09:31:45;11.90;62.60
46730;DHT22;32476;50.002;11.854;2023-04-07T09:34:30;12.40;62.80
46730;DHT22;32476;50.002;11.854;2023-04-07T09:36:56;11.90;60.00
46730;DHT22;32476;50.002;11.854;2023-04-07T09:39:24;11.60;57.80
46730;DHT22;32476;50.002;11.854;2023-04-07T09:41:50;10.70;59.40
46730;DHT22;32476;50.002;11.854;2023-04-07T09:44:18;11.40;65.80
46730;DHT22;32476;50.002;11.854;2023-04-07T09:46:56;11.70;59.90
46730;DHT22;32476;50.002;11.854;2023-04-07T09:49:24;11.90;60.00
46730;DHT22;32476;50.002;11.854;2023-04-07T09:51:58;12.00;63.40
46730;DHT22;32476;50.002;11.854;2023-04-07T09:54:38;12.40;62.70
46730;DHT22;32476;50.002;11.854;2023-04-07T09:57:10;12.30;62.30
46730;DHT22;32476;50.002;11.854;2023-04-07T09:59:37;12.80;62.00
46730;DHT22;32476;50.002;11.854;2023-04-07T10:02:04;12.80;59.50
46730;DHT22;32476;50.002;11.854;2023-04-07T10:04:32;12.70;56.80
46730;DHT22;32476;50.002;11.854;2023-04-07T10:06:59;12.40;57.00
46730;DHT22;32476;50.002;11.854;2023-04-07T10:09:29;12.50;59.00
46730;DHT22;32476;50.002;11.854;2023-04-07T10:11:58;12.60;59.90
46730;DHT22;32476;50.002;11.854;2023-04-07T10:14:30;12.50;57.20
46730;DHT22;32476;50.002;11.854;2023-04-07T10:16:59;12.40;56.80
46730;DHT22;32476;50.002;11.854;2023-04-07T10:19:31;12.50;56.90
46730;DHT22;32476;50.002;11.854;2023-04-07T10:22:01;12.90;58.50
46730;DHT22;32476;50.002;11.854;2023-04-07T10:25:17;13.30;57.90
46730;DHT22;32476;50.002;11.854;2023-04-07T10:27:23;13.00;55.50
46730;DHT22;32476;50.002;11.854;2023-04-07T10:29:52;12.50;56.00
46730;DHT22;32476;50.002;11.854;2023-04-07T10:32:20;12.20;57.20
46730;DHT22;32476;50.002;11.854;2023-04-07T10:37:16;11.60;55.70
46730;DHT22;32476;50.002;11.854;2023-04-07T10:39:48;11.50;59.10
46730;DHT22;32476;50.002;11.854;2023-04-07T10:45:04;12.40;57.10
46730;DHT22;32476;50.002;11.854;2023-04-07T10:47:30;12.40;57.00
46730;DHT22;32476;50.002;11.854;2023-04-07T10:50:19;12.50;56.50
46730;DHT22;32476;50.002;11.854;2023-04-07T10:53:07;13.00;59.60
46730;DHT22;32476;50.002;11.854;2023-04-07T10:55:38;13.50;56.70
46730;DHT22;32476;50.002;11.854;2023-04-07T10:58:22;13.70;55.70
46730;DHT22;32476;50.002;11.854;2023-04-07T11:01:15;13.20;55.20
46730;DHT22;32476;50.002;11.854;2023-04-07T11:03:55;13.60;57.10
46730;DHT22;32476;50.002;11.854;2023-04-07T11:06:21;13.20;53.90
46730;DHT22;32476;50.002;11.854;2023-04-07T11:08:49;12.90;55.40
46730;DHT22;32476;50.002;11.854;2023-04-07T11:11:38;12.50;55.20
46730;DHT22;32476;50.002;11.854;2023-04-07T11:14:06;12.60;56.20
46730;DHT22;32476;50.002;11.854;2023-04-07T11:16:40;12.70;54.80
46730;DHT22;32476;50.002;11.854;2023-04-07T11:19:08;13.20;58.20
46730;DHT22;32476;50.002;11.854;2023-04-07T11:21:34;13.50;54.20
46730;DHT22;32476;50.002;11.854;2023-04-07T11:24:01;13.30;55.10
46730;DHT22;32476;50.002;11.854;2023-04-07T11:26:29;13.30;52.10
46730;DHT22;32476;50.002;11.854;2023-04-07T11:28:55;13.90;57.60
46730;DHT22;32476;50.002;11.854;2023-04-07T11:31:26;14.70;57.50
46730;DHT22;32476;50.002;11.854;2023-04-07T11:33:56;14.20;53.50
46730;DHT22;32476;50.002;11.854;2023-04-07T11:36:40;14.20;54.90
46730;DHT22;32476;50.002;11.854;2023-04-07T11:39:20;14.30;53.10
46730;DHT22;32476;50.002;11.854;2023-04-07T11:41:48;13.80;53.20
46730;DHT22;32476;50.002;11.854;2023-04-07T11:44:15;13.30;52.30
46730;DHT22;32476;50.002;11.854;2023-04-07T11:46:53;13.30;53.70
46730;DHT22;32476;50.002;11.854;2023-04-07T11:49:22;13.50;51.90
46730;DHT22;32476;50.002;11.854;2023-04-07T11:54:37;13.20;53.80
46730;DHT22;32476;50.002;11.854;2023-04-07T11:57:03;12.90;52.10
46730;DHT22;32476;50.002;11.854;2023-04-07T11:59:30;12.40;53.70
46730;DHT22;32476;50.002;11.854;2023-04-07T12:01:57;12.60;54.70
46730;DHT22;32476;50.002;11.854;2023-04-07T12:04:23;12.90;55.60
46730;DHT22;32476;50.002;11.854;2023-04-07T12:06:50;13.40;55.40
46730;DHT22;32476;50.002;11.854;2023-04-07T12:09:31;13.00;53.30
46730;DHT22;32476;50.002;11.854;2023-04-07T12:12:03;13.00;53.50
46730;DHT22;32476;50.002;11.854;2023-04-07T12:14:33;13.00;52.80
46730;DHT22;32476;50.002;11.854;2023-04-07T12:16:59;13.00;54.20
46730;DHT22;32476;50.002;11.854;2023-04-07T12:19:30;12.80;53.30
46730;DHT22;32476;50.002;11.854;2023-04-07T12:22:00;13.10;55.30
46730;DHT22;32476;50.002;11.854;2023-04-07T12:24:25;12.80;53.10
46730;DHT22;32476;50.002;11.854;2023-04-07T12:26:53;12.90;54.70
46730;DHT22;32476;50.002;11.854;2023-04-07T12:29:19;13.20;56.40
46730;DHT22;32476;50.002;11.854;2023-04-07T12:31:45;13.00;52.60
46730;DHT22;32476;50.002;11.854;2023-04-07T12:34:12;12.80;54.00
46730;DHT22;32476;50.002;11.854;2023-04-07T12:36:38;12.70;54.10
46730;DHT22;32476;50.002;11.854;2023-04-07T12:39:03;13.10;53.10
46730;DHT22;32476;50.002;11.854;2023-04-07T12:41:31;13.20;52.10
46730;DHT22;32476;50.002;11.854;2023-04-07T12:43:57;13.10;54.30
46730;DHT22;32476;50.002;11.854;2023-04-07T12:46:22;13.10;52.20
46730;DHT22;32476;50.002;11.854;2023-04-07T12:48:50;13.70;53.50
46730;DHT22;32476;50.002;11.854;2023-04-07T12:51:16;13.70;52.20
46730;DHT22;32476;50.002;11.854;2023-04-07T12:53:41;13.70;52.80
46730;DHT22;32476;50.002;11.854;2023-04-07T12:56:09;14.20;53.70
46730;DHT22;32476;50.002;11.854;2023-04-07T12:58:35;14.80;51.50
46730;DHT22;32476;50.002;11.854;2023-04-07T13:01:03;14.90;51.50
46730;DHT22;32476;50.002;11.854;2023-04-07T13:03:31;14.80;49.60
46730;DHT22;32476;50.002;11.854;2023-04-07T13:05:56;14.50;48.90
46730;DHT22;32476;50.002;11.854;2023-04-07T13:08:27;14.20;49.40
46730;DHT22;32476;50.002;11.854;2023-04-07T13:10:55;13.80;50.00
46730;DHT22;32476;50.002;11.854;2023-04-07T13:13:22;13.90;52.20
46730;DHT22;32476;50.002;11.854;2023-04-07T13:15:48;13.80;50.60
46730;DHT22;32476;50.002;11.854;2023-04-07T13:18:15;13.90;53.50
46730;DHT22;32476;50.002;11.854;2023-04-07T13:20:42;13.70;51.20
46730;DHT22;32476;50.002;11.854;2023-04-07T13:23:08;13.60;50.40
46730;DHT22;32476;50.002;11.854;2023-04-07T13:25:36;13.80;52.60
46730;DHT22;32476;50.002;11.854;2023-04-07T13:28:02;13.40;50.70
46730;DHT22;32476;50.002;11.854;2023-04-07T13:30:28;13.80;54.30
46730;DHT22;32476;50.002;11.854;2023-04-07T13:32:55;13.80;51.80
46730;DHT22;32476;50.002;11.854;2023-04-07T13:35:21;13.80;49.60
46730;DHT22;32476;50.002;11.854;2023-04-07T13:37:47;13.60;50.20
46730;DHT22;32476;50.002;11.854;2023-04-07T13:40:14;13.20;49.30
46730;DHT22;32476;50.002;11.854;2023-04-07T13:42:40;12.50;49.70
46730;DHT22;32476;50.002;11.854;2023-04-07T13:45:06;12.10;49.50
46730;DHT22;32476;50.002;11.854;2023-04-07T13:47:34;12.20;52.50
46730;DHT22;32476;50.002;11.854;2023-04-07T13:50:01;12.00;54.40
46730;DHT22;32476;50.002;11.854;2023-04-07T13:52:27;12.30;50.80
46730;DHT22;32476;50.002;11.854;2023-04-07T13:54:55;12.40;52.10
46730;DHT22;32476;50.002;11.854;2023-04-07T13:57:22;12.80;52.20
46730;DHT22;32476;50.002;11.854;2023-04-07T13:59:49;13.10;53.70
46730;DHT22;32476;50.002;11.854;2023-04-07T14:02:18;12.90;48.80
46730;DHT22;32476;50.002;11.854;2023-04-07T14:04:45;12.90;51.40
46730;DHT22;32476;50.002;11.854;2023-04-07T14:07:11;12.80;49.00
46730;DHT22;32476;50.002;11.854;2023-04-07T14:09:38;13.10;52.10
46730;DHT22;32476;50.002;11.854;2023-04-07T14:12:04;13.30;48.50
46730;DHT22;32476;50.002;11.854;2023-04-07T14:14:30;12.80;47.70
46730;DHT22;32476;50.002;11.854;2023-04-07T14:16:58;13.30;49.30
46730;DHT22;32476;50.002;11.854;2023-04-07T14:19:24;13.40;51.00
46730;DHT22;32476;50.002;11.854;2023-04-07T14:21:50;13.70;48.80
46730;DHT22;32476;50.002;11.854;2023-04-07T14:24:18;13.60;47.80
46730;DHT22;32476;50.002;11.854;2023-04-07T14:26:44;13.50;47.50
46730;DHT22;32476;50.002;11.854;2023-04-07T14:29:12;13.00;46.10
46730;DHT22;32476;50.002;11.854;2023-04-07T14:31:39;12.90;46.20
46730;DHT22;32476;50.002;11.854;2023-04-07T14:34:05;12.50;47.20
46730;DHT22;32476;50.002;11.854;2023-04-07T14:36:34;12.30;48.10
46730;DHT22;32476;50.002;11.854;2023-04-07T14:39:01;12.50;46.40
46730;DHT22;32476;50.002;11.854;2023-04-07T14:41:28;12.80;49.60
46730;DHT22;32476;50.002;11.854;2023-04-07T14:43:54;12.60;46.00
46730;DHT22;32476;50.002;11.854;2023-04-07T14:46:25;12.50;48.80
46730;DHT22;32476;50.002;11.854;2023-04-07T14:48:52;12.70;48.20
46730;DHT22;32476;50.002;11.854;2023-04-07T14:51:18;12.80;47.10
46730;DHT22;32476;50.002;11.854;2023-04-07T14:53:45;13.00;50.60
46730;DHT22;32476;50.002;11.854;2023-04-07T14:56:12;13.30;51.80
46730;DHT22;32476;50.002;11.854;2023-04-07T14:58:38;13.20;50.40
46730;DHT22;32476;50.002;11.854;2023-04-07T15:01:06;12.80;50.00
46730;DHT22;32476;50.002;11.854;2023-04-07T15:03:33;12.50;51.40
46730;DHT22;32476;50.002;11.854;2023-04-07T15:05:59;12.70;51.70
46730;DHT22;32476;50.002;11.854;2023-04-07T15:08:26;12.30;49.90
46730;DHT22;32476;50.002;11.854;2023-04-07T15:10:52;12.50;53.20
46730;DHT22;32476;50.002;11.854;2023-04-07T15:13:18;12.90;52.10
46730;DHT22;32476;50.002;11.854;2023-04-07T15:15:45;12.80;52.20
46730;DHT22;32476;50.002;11.854;2023-04-07T15:18:11;12.20;49.70
46730;DHT22;32476;50.002;11.854;2023-04-07T15:20:37;12.50;52.00
46730;DHT22;32476;50.002;11.854;2023-04-07T15:23:04;12.30;51.90
46730;DHT22;32476;50.002;11.854;2023-04-07T15:25:30;12.30;52.60
46730;DHT22;32476;50.002;11.854;2023-04-07T15:27:56;11.90;50.90
46730;DHT22;32476;50.002;11.854;2023-04-07T15:30:23;11.50;51.10
46730;DHT22;32476;50.002;11.854;2023-04-07T15:32:59;11.20;50.80
46730;DHT22;32476;50.002;11.854;2023-04-07T15:35:26;11.30;54.40